createdAt,value
2017-04-26T00:00:00.934Z,68.40
2017-04-26T00:01:01.111Z,68.40
2017-04-26T00:02:01.574Z,68.50
2017-04-26T00:03:01.962Z,68.60
2017-04-26T00:04:02.072Z,68.20
2017-04-26T00:05:02.285Z,69.20
2017-04-26T00:06:02.460Z,68.50
2017-04-26T00:07:02.615Z,68.80
2017-04-26T00:08:03.252Z,69.00
2017-04-26T00:09:03.668Z,68.80
2017-04-26T00:10:03.751Z,69.00
2017-04-26T00:11:03.848Z,68.70
2017-04-26T00:12:04.672Z,68.80
2017-04-26T00:13:05.940Z,69.20
2017-04-26T00:14:06.367Z,68.80
2017-04-26T00:15:06.868Z,68.80
2017-04-26T00:16:07.779Z,68.90
2017-04-26T00:17:07.899Z,69.10
2017-04-26T00:18:09.096Z,68.80
2017-04-26T00:19:09.779Z,69.00
2017-04-26T00:20:09.964Z,68.90
2017-04-26T00:21:10.327Z,68.80
2017-04-26T00:22:10.406Z,68.80
2017-04-26T00:23:10.628Z,68.70
2017-04-26T00:24:10.824Z,68.70
2017-04-26T00:25:10.937Z,69.10
2017-04-26T00:26:11.020Z,68.70
2017-04-26T00:27:12.030Z,69.00
2017-04-26T00:28:12.402Z,69.50
2017-04-26T00:29:12.484Z,69.40
2017-04-26T00:30:12.623Z,69.00
2017-04-26T00:31:12.688Z,68.80
2017-04-26T00:32:13.541Z,69.00
2017-04-26T00:33:13.651Z,69.60
2017-04-26T00:34:14.293Z,68.90
2017-04-26T00:35:14.383Z,68.90
2017-04-26T00:36:15.652Z,69.00
2017-04-26T00:37:15.739Z,69.10
2017-04-26T00:38:15.851Z,69.20
2017-04-26T00:39:15.944Z,69.30
2017-04-26T00:40:16.106Z,69.20
2017-04-26T00:41:16.206Z,69.20
2017-04-26T00:42:16.544Z,69.40
2017-04-26T00:43:17.382Z,70.10
2017-04-26T00:44:18.499Z,69.80
2017-04-26T00:45:18.693Z,69.70
2017-04-26T00:46:19.804Z,69.90
2017-04-26T00:47:19.878Z,70.00
2017-04-26T00:48:20.762Z,69.90
2017-04-26T00:49:20.900Z,70.00
2017-04-26T00:50:22.054Z,70.10
2017-04-26T00:51:22.537Z,70.20
2017-04-26T00:52:22.610Z,70.10
2017-04-26T00:53:22.728Z,70.10
2017-04-26T00:54:22.828Z,70.40
2017-04-26T00:55:22.967Z,70.20
2017-04-26T00:56:23.330Z,70.20
2017-04-26T00:57:24.432Z,70.40
2017-04-26T00:58:24.820Z,70.30
2017-04-26T00:59:24.965Z,70.50
2017-04-26T01:00:25.083Z,70.50
2017-04-26T01:01:26.016Z,70.00
2017-04-26T01:02:26.841Z,70.60
2017-04-26T01:03:28.427Z,70.70
2017-04-26T01:04:28.560Z,71.00
2017-04-26T01:05:28.687Z,70.80
2017-04-26T01:06:28.844Z,70.70
2017-04-26T01:07:29.268Z,71.00
2017-04-26T01:08:29.685Z,71.10
2017-04-26T01:09:29.834Z,71.10
2017-04-26T01:10:29.924Z,71.00
2017-04-26T01:11:30.046Z,70.90
2017-04-26T01:12:30.115Z,71.10
2017-04-26T01:13:30.271Z,71.20
2017-04-26T01:14:30.492Z,71.00
2017-04-26T01:15:30.848Z,71.10
2017-04-26T01:16:31.326Z,71.30
2017-04-26T01:17:31.391Z,71.40
2017-04-26T01:18:32.111Z,71.40
2017-04-26T01:19:32.232Z,71.50
2017-04-26T01:20:32.680Z,70.40
2017-04-26T01:21:33.127Z,70.20
2017-04-26T01:22:34.247Z,70.80
2017-04-26T01:23:35.127Z,71.60
2017-04-26T01:24:35.217Z,71.40
2017-04-26T01:25:35.384Z,71.70
2017-04-26T01:26:36.218Z,71.80
2017-04-26T01:27:36.578Z,72.00
2017-04-26T01:28:37.000Z,72.00
2017-04-26T01:29:37.114Z,72.00
2017-04-26T01:30:37.190Z,72.50
2017-04-26T01:31:38.043Z,72.60
2017-04-26T01:32:38.120Z,72.50
2017-04-26T01:33:38.217Z,72.90
2017-04-26T01:34:38.591Z,73.00
2017-04-26T01:35:38.668Z,73.10
2017-04-26T01:36:39.065Z,73.00
2017-04-26T01:37:39.932Z,73.00
2017-04-26T01:38:40.051Z,73.20
2017-04-26T01:39:40.159Z,73.10
2017-04-26T01:40:40.288Z,72.90
2017-04-26T01:41:40.395Z,72.70
2017-04-26T01:42:40.456Z,73.00
2017-04-26T01:43:41.292Z,73.20
2017-04-26T01:44:41.714Z,73.10
2017-04-26T01:45:41.828Z,72.90
2017-04-26T01:46:41.975Z,72.90
2017-04-26T01:47:42.133Z,72.90
2017-04-26T01:48:42.263Z,73.00
2017-04-26T01:49:43.020Z,72.50
2017-04-26T01:50:43.399Z,72.50
2017-04-26T01:51:43.495Z,72.60
2017-04-26T01:52:43.652Z,73.30
2017-04-26T01:53:43.746Z,73.80
2017-04-26T01:55:44.459Z,73.40
2017-04-26T01:56:44.583Z,73.20
2017-04-26T01:57:44.732Z,72.90
2017-04-26T01:58:44.849Z,73.40
2017-04-26T01:59:45.707Z,72.90
2017-04-26T02:00:45.780Z,73.10
2017-04-26T02:01:46.328Z,73.20
2017-04-26T02:02:47.516Z,73.80
2017-04-26T02:03:47.636Z,73.80
2017-04-26T02:04:48.026Z,73.80
2017-04-26T02:05:48.107Z,74.00
2017-04-26T02:06:48.258Z,73.90
2017-04-26T02:07:48.352Z,73.80
2017-04-26T02:08:48.689Z,73.40
2017-04-26T02:09:48.868Z,73.30
2017-04-26T02:10:49.003Z,73.30
2017-04-26T02:11:49.450Z,73.80
2017-04-26T02:12:49.856Z,74.00
2017-04-26T02:13:49.975Z,74.30
2017-04-26T02:14:50.871Z,74.30
2017-04-26T02:15:51.255Z,74.30
2017-04-26T02:16:52.018Z,74.20
2017-04-26T02:17:52.199Z,74.20
2017-04-26T02:18:52.639Z,74.10
2017-04-26T02:19:52.770Z,74.20
2017-04-26T02:20:53.179Z,74.90
2017-04-26T02:21:54.393Z,73.90
2017-04-26T02:22:54.514Z,74.00
2017-04-26T02:23:54.672Z,73.30
2017-04-26T02:24:55.520Z,72.20
2017-04-26T02:25:55.763Z,72.30
2017-04-26T02:26:55.836Z,72.50
2017-04-26T02:27:55.923Z,73.00
2017-04-26T02:28:56.084Z,74.00
2017-04-26T02:29:56.524Z,72.50
2017-04-26T02:30:57.379Z,74.00
2017-04-26T02:31:57.676Z,74.70
2017-04-26T02:32:57.812Z,74.30
2017-04-26T02:33:57.918Z,74.20
2017-04-26T02:34:58.033Z,75.20
2017-04-26T02:35:58.173Z,75.70
2017-04-26T02:36:58.260Z,75.50
2017-04-26T02:37:58.458Z,75.30
2017-04-26T02:38:58.535Z,74.80
2017-04-26T02:39:59.408Z,75.70
2017-04-26T02:40:59.515Z,75.00
2017-04-26T02:42:00.043Z,75.40
2017-04-26T02:43:00.247Z,75.70
2017-04-26T02:44:00.567Z,75.40
2017-04-26T02:45:01.295Z,75.20
2017-04-26T02:46:01.706Z,75.20
2017-04-26T02:47:01.808Z,75.30
2017-04-26T02:48:02.669Z,75.40
2017-04-26T02:49:02.795Z,75.20
2017-04-26T02:50:02.876Z,75.40
2017-04-26T02:51:02.940Z,75.40
2017-04-26T02:52:03.126Z,75.30
2017-04-26T02:53:03.752Z,75.20
2017-04-26T02:54:04.721Z,75.50
2017-04-26T02:55:04.772Z,75.20
2017-04-26T02:56:04.899Z,73.90
2017-04-26T02:57:05.034Z,74.70
2017-04-26T02:58:05.852Z,75.00
2017-04-26T02:59:07.005Z,74.20
2017-04-26T03:00:07.200Z,75.00
2017-04-26T03:01:08.055Z,71.40
2017-04-26T03:02:08.183Z,72.60
2017-04-26T03:03:08.295Z,73.80
2017-04-26T03:04:08.730Z,76.60
2017-04-26T03:05:08.863Z,73.20
2017-04-26T03:06:09.766Z,75.40
2017-04-26T03:07:09.922Z,76.00
2017-04-26T03:08:10.033Z,77.40
2017-04-26T03:09:10.960Z,76.60
2017-04-26T03:10:11.779Z,76.90
2017-04-26T03:11:11.865Z,74.00
2017-04-26T03:12:11.945Z,75.40
2017-04-26T03:13:12.065Z,73.80
2017-04-26T03:14:12.659Z,76.00
2017-04-26T03:15:12.810Z,75.00
2017-04-26T03:16:12.909Z,72.10
2017-04-26T03:17:13.750Z,74.20
2017-04-26T03:19:15.055Z,76.30
2017-04-26T03:20:15.196Z,76.30
2017-04-26T03:21:15.279Z,75.60
2017-04-26T03:22:15.728Z,75.90
2017-04-26T03:23:15.842Z,75.40
2017-04-26T03:24:15.980Z,75.80
2017-04-26T03:25:16.858Z,75.20
2017-04-26T03:26:16.928Z,75.00
2017-04-26T03:27:17.027Z,76.10
2017-04-26T03:28:17.471Z,74.00
2017-04-26T03:29:17.805Z,72.80
2017-04-26T03:30:18.365Z,73.80
2017-04-26T03:31:19.280Z,73.90
2017-04-26T03:32:19.372Z,74.50
2017-04-26T03:33:19.479Z,74.80
2017-04-26T03:34:20.378Z,75.20
2017-04-26T03:35:20.795Z,75.20
2017-04-26T03:36:20.891Z,75.70
2017-04-26T03:37:20.990Z,76.00
2017-04-26T03:38:21.115Z,76.00
2017-04-26T03:39:21.568Z,76.20
2017-04-26T03:40:22.030Z,75.20
2017-04-26T03:41:22.490Z,75.80
2017-04-26T03:42:22.615Z,75.80
2017-04-26T03:43:22.982Z,76.00
2017-04-26T03:44:23.428Z,75.40
2017-04-26T03:45:23.553Z,76.00
2017-04-26T03:46:23.735Z,75.60
2017-04-26T03:47:24.159Z,75.50
2017-04-26T03:48:24.205Z,76.30
2017-04-26T03:49:24.256Z,75.90
2017-04-26T03:50:24.999Z,76.00
2017-04-26T03:51:25.103Z,75.90
2017-04-26T03:52:25.526Z,75.60
2017-04-26T03:53:25.639Z,76.00
2017-04-26T03:54:26.151Z,76.80
2017-04-26T03:55:26.538Z,74.70
2017-04-26T03:56:27.391Z,75.60
2017-04-26T03:57:27.547Z,75.20
2017-04-26T03:58:27.595Z,74.90
2017-04-26T03:59:27.671Z,75.10
2017-04-26T04:00:28.040Z,74.80
2017-04-26T04:01:28.315Z,75.00
2017-04-26T04:02:29.595Z,73.60
2017-04-26T04:03:29.702Z,76.00
2017-04-26T04:04:29.867Z,75.70
2017-04-26T04:05:30.771Z,76.10
2017-04-26T04:06:30.879Z,75.60
2017-04-26T04:07:31.024Z,76.60
2017-04-26T04:08:31.376Z,75.80
2017-04-26T04:09:31.741Z,76.50
2017-04-26T04:10:31.840Z,75.00
2017-04-26T04:11:33.053Z,77.30
2017-04-26T04:12:34.084Z,76.40
2017-04-26T04:13:34.177Z,76.00
2017-04-26T04:14:34.299Z,75.80
2017-04-26T04:15:34.448Z,74.20
2017-04-26T04:16:35.523Z,74.40
2017-04-26T04:17:35.955Z,75.20
2017-04-26T04:18:36.669Z,75.20
2017-04-26T04:19:37.100Z,75.40
2017-04-26T04:20:37.603Z,75.80
2017-04-26T04:21:37.699Z,75.00
2017-04-26T04:22:38.555Z,75.70
2017-04-26T04:23:38.659Z,76.20
2017-04-26T04:24:38.812Z,75.50
2017-04-26T04:25:38.895Z,75.60
2017-04-26T04:26:39.032Z,76.60
2017-04-26T04:27:39.145Z,76.00
2017-04-26T04:28:40.224Z,75.60
2017-04-26T04:29:40.624Z,75.20
2017-04-26T04:30:40.696Z,76.70
2017-04-26T04:31:40.811Z,75.00
2017-04-26T04:32:41.727Z,75.40
2017-04-26T04:33:41.897Z,74.40
2017-04-26T04:34:41.948Z,74.80
2017-04-26T04:35:42.022Z,74.50
2017-04-26T04:36:42.104Z,74.40
2017-04-26T04:37:42.292Z,74.70
2017-04-26T04:38:42.714Z,74.20
2017-04-26T04:39:42.837Z,73.60
2017-04-26T04:40:44.058Z,72.70
2017-04-26T04:41:44.923Z,74.10
2017-04-26T04:42:44.977Z,73.40
2017-04-26T04:43:45.883Z,74.90
2017-04-26T04:44:45.995Z,73.50
2017-04-26T04:45:46.126Z,74.20
2017-04-26T04:46:46.189Z,73.80
2017-04-26T04:47:46.274Z,72.80
2017-04-26T04:48:46.432Z,75.20
2017-04-26T04:49:46.512Z,75.70
2017-04-26T04:50:46.626Z,76.20
2017-04-26T04:51:46.735Z,73.40
2017-04-26T04:52:46.835Z,72.40
2017-04-26T04:53:47.051Z,73.30
2017-04-26T04:54:47.724Z,75.00
2017-04-26T04:55:48.099Z,75.40
2017-04-26T04:56:48.227Z,73.00
2017-04-26T04:57:48.369Z,74.90
2017-04-26T04:58:48.832Z,75.00
2017-04-26T04:59:48.947Z,73.90
2017-04-26T05:00:49.116Z,72.40
2017-04-26T05:01:49.951Z,71.20
2017-04-26T05:02:50.814Z,71.10
2017-04-26T05:03:50.944Z,70.10
2017-04-26T05:04:51.383Z,72.40
2017-04-26T05:05:51.542Z,70.90
2017-04-26T05:06:52.371Z,70.50
2017-04-26T05:07:52.572Z,72.20
2017-04-26T05:08:52.964Z,71.00
2017-04-26T05:09:53.802Z,67.80
2017-04-26T05:10:54.903Z,68.80
2017-04-26T05:11:54.991Z,69.90
2017-04-26T05:12:55.118Z,69.20
2017-04-26T05:13:55.283Z,67.70
2017-04-26T05:14:55.339Z,69.40
2017-04-26T05:16:56.286Z,69.10
2017-04-26T05:17:56.362Z,68.40
2017-04-26T05:18:56.516Z,69.40
2017-04-26T05:19:57.764Z,70.90
2017-04-26T05:20:58.682Z,69.40
2017-04-26T05:21:59.048Z,69.10
2017-04-26T05:22:59.298Z,69.50
2017-04-26T05:24:00.684Z,69.60
2017-04-26T05:25:01.954Z,69.80
2017-04-26T05:26:02.262Z,70.00
2017-04-26T05:27:02.561Z,70.30
2017-04-26T05:28:02.723Z,71.50
2017-04-26T05:29:02.803Z,69.90
2017-04-26T05:30:03.069Z,69.70
2017-04-26T05:31:03.212Z,70.30
2017-04-26T05:32:04.599Z,69.90
2017-04-26T05:33:05.864Z,70.20
2017-04-26T05:34:06.035Z,70.70
2017-04-26T05:35:06.127Z,70.90
2017-04-26T05:36:07.177Z,70.80
2017-04-26T05:37:07.283Z,68.70
2017-04-26T05:38:07.595Z,68.50
2017-04-26T05:39:07.734Z,69.00
2017-04-26T05:40:08.167Z,68.10
2017-04-26T05:41:08.311Z,68.70
2017-04-26T05:42:08.777Z,68.50
2017-04-26T05:43:09.317Z,68.10
2017-04-26T05:44:10.251Z,68.40
2017-04-26T05:45:11.158Z,68.40
2017-04-26T05:46:11.640Z,68.40
2017-04-26T05:47:12.488Z,67.90
2017-04-26T05:48:13.403Z,67.40
2017-04-26T05:49:13.854Z,67.50
2017-04-26T05:50:14.005Z,67.00
2017-04-26T05:51:14.426Z,67.10
2017-04-26T05:52:14.810Z,66.60
2017-04-26T05:53:15.168Z,67.60
2017-04-26T05:54:15.550Z,67.30
2017-04-26T05:55:15.695Z,66.70
2017-04-26T05:56:15.784Z,66.20
2017-04-26T05:57:15.828Z,66.10
2017-04-26T05:58:16.804Z,66.50
2017-04-26T05:59:17.258Z,66.60
2017-04-26T06:00:17.468Z,66.50
2017-04-26T06:01:17.556Z,65.50
2017-04-26T06:02:17.651Z,64.90
2017-04-26T06:03:18.127Z,66.20
2017-04-26T06:04:18.685Z,65.90
2017-04-26T06:05:18.827Z,65.30
2017-04-26T06:06:18.947Z,65.30
2017-04-26T06:07:19.402Z,64.70
2017-04-26T06:08:19.738Z,63.60
2017-04-26T06:09:19.843Z,63.90
2017-04-26T06:10:20.163Z,64.50
2017-04-26T06:11:20.295Z,64.20
2017-04-26T06:12:20.713Z,63.80
2017-04-26T06:13:20.800Z,63.00
2017-04-26T06:14:21.515Z,63.30
2017-04-26T06:15:21.605Z,63.40
2017-04-26T06:16:22.450Z,63.90
2017-04-26T06:17:22.841Z,62.80
2017-04-26T06:18:22.949Z,62.40
2017-04-26T06:19:23.291Z,62.70
2017-04-26T06:20:23.419Z,62.30
2017-04-26T06:21:23.880Z,61.60
2017-04-26T06:22:24.013Z,61.70
2017-04-26T06:23:24.848Z,61.90
2017-04-26T06:24:24.995Z,61.50
2017-04-26T06:25:25.371Z,61.00
2017-04-26T06:26:25.535Z,61.00
2017-04-26T06:27:25.940Z,61.10
2017-04-26T06:28:26.087Z,60.90
2017-04-26T06:29:26.948Z,61.20
2017-04-26T06:30:27.411Z,61.20
2017-04-26T06:31:27.739Z,60.80
2017-04-26T06:32:27.848Z,60.70
2017-04-26T06:33:28.203Z,59.80
2017-04-26T06:34:28.283Z,59.40
2017-04-26T06:35:29.094Z,58.90
2017-04-26T06:36:29.938Z,58.10
2017-04-26T06:37:30.296Z,58.90
2017-04-26T06:38:31.116Z,59.10
2017-04-26T06:39:31.171Z,59.40
2017-04-26T06:40:31.251Z,58.10
2017-04-26T06:41:31.666Z,58.60
2017-04-26T06:42:31.810Z,58.40
2017-04-26T06:43:32.734Z,58.30
2017-04-26T06:44:33.918Z,58.00
2017-04-26T06:45:34.671Z,58.10
2017-04-26T06:46:34.796Z,57.70
2017-04-26T06:47:34.941Z,57.40
2017-04-26T06:48:35.030Z,57.30
2017-04-26T06:49:35.894Z,57.20
2017-04-26T06:50:36.059Z,56.50
2017-04-26T06:51:36.866Z,55.50
2017-04-26T06:52:37.247Z,55.90
2017-04-26T06:53:37.327Z,54.80
2017-04-26T06:54:38.184Z,55.20
2017-04-26T06:55:38.495Z,55.50
2017-04-26T06:56:38.598Z,55.60
2017-04-26T06:57:38.688Z,55.50
2017-04-26T06:58:39.584Z,54.60
2017-04-26T06:59:40.426Z,54.80
2017-04-26T07:00:41.250Z,55.10
2017-04-26T07:01:42.154Z,55.00
2017-04-26T07:02:45.285Z,55.80
2017-04-26T07:03:45.375Z,55.50
2017-04-26T07:04:46.263Z,54.80
2017-04-26T07:05:46.441Z,55.20
2017-04-26T07:06:46.565Z,55.50
2017-04-26T07:07:46.654Z,54.40
2017-04-26T07:08:47.089Z,54.70
2017-04-26T07:09:47.185Z,54.60
2017-04-26T07:10:47.339Z,54.10
2017-04-26T07:11:47.390Z,54.50
2017-04-26T07:12:48.468Z,54.90
2017-04-26T07:13:48.906Z,55.00
2017-04-26T07:14:49.365Z,54.90
2017-04-26T07:15:49.883Z,54.70
2017-04-26T07:16:50.010Z,53.80
2017-04-26T07:17:50.384Z,53.40
2017-04-26T07:18:51.226Z,53.70
2017-04-26T07:19:52.050Z,53.30
2017-04-26T07:20:52.183Z,52.50
2017-04-26T07:21:52.288Z,52.50
2017-04-26T07:22:52.730Z,52.40
2017-04-26T07:23:52.893Z,52.80
2017-04-26T07:24:54.072Z,51.60
2017-04-26T07:25:54.162Z,52.20
2017-04-26T07:26:54.596Z,52.00
2017-04-26T07:27:55.007Z,51.10
2017-04-26T07:28:55.453Z,51.80
2017-04-26T07:29:55.796Z,51.90
2017-04-26T07:30:56.908Z,51.00
2017-04-26T07:31:57.041Z,51.40
2017-04-26T07:32:58.219Z,52.00
2017-04-26T07:33:58.672Z,53.00
2017-04-26T07:34:58.737Z,52.20
2017-04-26T07:35:58.860Z,52.70
2017-04-26T07:36:59.000Z,51.60
2017-04-26T07:38:00.196Z,51.80
2017-04-26T07:39:00.615Z,52.50
2017-04-26T07:40:00.738Z,51.80
2017-04-26T07:41:01.144Z,52.50
2017-04-26T07:42:01.651Z,51.80
2017-04-26T07:43:01.829Z,52.30
2017-04-26T07:44:02.700Z,52.80
2017-04-26T07:45:02.811Z,51.50
2017-04-26T07:46:02.946Z,52.40
2017-04-26T07:47:03.266Z,51.50
2017-04-26T07:48:03.380Z,50.60
2017-04-26T07:49:03.506Z,49.60
2017-04-26T07:50:03.615Z,51.00
2017-04-26T07:51:04.547Z,48.20
2017-04-26T07:53:04.945Z,47.80
2017-04-26T07:54:05.051Z,47.60
2017-04-26T07:55:05.182Z,48.30
2017-04-26T07:56:05.258Z,48.00
2017-04-26T07:57:05.379Z,49.00
2017-04-26T07:58:05.766Z,50.00
2017-04-26T07:59:05.823Z,48.30
2017-04-26T08:00:06.747Z,49.00
2017-04-26T08:01:07.747Z,49.00
2017-04-26T08:02:07.892Z,47.40
2017-04-26T08:03:08.563Z,47.60
2017-04-26T08:04:08.662Z,48.70
2017-04-26T08:05:09.493Z,47.40
2017-04-26T08:06:09.636Z,48.20
2017-04-26T08:07:09.791Z,45.50
2017-04-26T08:08:09.879Z,47.00
2017-04-26T08:09:10.729Z,48.90
2017-04-26T08:10:10.918Z,46.70
2017-04-26T08:11:11.023Z,45.20
2017-04-26T08:12:11.099Z,44.80
2017-04-26T08:13:12.196Z,44.90
2017-04-26T08:15:12.714Z,47.50
2017-04-26T08:16:13.555Z,43.50
2017-04-26T08:17:13.646Z,46.50
2017-04-26T08:18:14.783Z,43.70
2017-04-26T08:19:15.230Z,46.90
2017-04-26T08:20:15.584Z,42.10
2017-04-26T08:21:16.007Z,41.80
2017-04-26T08:22:16.440Z,44.40
2017-04-26T08:23:17.312Z,41.90
2017-04-26T08:24:17.443Z,40.60
2017-04-26T08:25:17.537Z,42.90
2017-04-26T08:26:17.623Z,41.50
2017-04-26T08:27:17.714Z,42.60
2017-04-26T08:28:17.873Z,41.90
2017-04-26T08:29:18.306Z,41.00
2017-04-26T08:30:18.346Z,41.50
2017-04-26T08:31:19.244Z,41.90
2017-04-26T08:32:19.330Z,44.50
2017-04-26T08:33:19.430Z,47.70
2017-04-26T08:34:19.528Z,49.50
2017-04-26T08:35:19.611Z,47.70
2017-04-26T08:36:20.745Z,46.70
2017-04-26T08:37:21.509Z,42.60
2017-04-26T08:38:21.646Z,41.50
2017-04-26T08:39:21.972Z,42.40
2017-04-26T08:40:22.347Z,43.60
2017-04-26T08:41:22.412Z,46.00
2017-04-26T08:42:22.706Z,41.90
2017-04-26T08:43:23.584Z,45.00
2017-04-26T08:44:23.663Z,44.30
2017-04-26T08:45:24.553Z,41.30
2017-04-26T08:46:24.675Z,41.00
2017-04-26T08:47:24.752Z,44.90
2017-04-26T08:48:25.271Z,44.00
2017-04-26T08:49:25.380Z,42.50
2017-04-26T08:50:25.460Z,42.20
2017-04-26T08:51:26.668Z,43.80
2017-04-26T08:52:26.742Z,42.20
2017-04-26T08:53:26.915Z,43.00
2017-04-26T08:54:28.112Z,41.60
2017-04-26T08:55:28.187Z,41.50
2017-04-26T08:56:28.662Z,41.30
2017-04-26T08:57:28.683Z,41.50
2017-04-26T08:58:29.786Z,41.00
2017-04-26T08:59:29.912Z,42.30
2017-04-26T09:00:30.303Z,41.90
2017-04-26T09:01:31.128Z,42.10
2017-04-26T09:02:31.272Z,41.80
2017-04-26T09:03:32.344Z,42.50
2017-04-26T09:04:32.425Z,42.50
2017-04-26T09:05:32.561Z,41.60
2017-04-26T09:06:32.705Z,41.70
2017-04-26T09:07:33.148Z,42.50
2017-04-26T09:08:33.219Z,42.70
2017-04-26T09:09:33.303Z,42.20
2017-04-26T09:10:33.403Z,42.80
2017-04-26T09:11:33.576Z,42.80
2017-04-26T09:12:33.748Z,42.00
2017-04-26T09:13:34.098Z,42.20
2017-04-26T09:14:34.265Z,44.80
2017-04-26T09:15:34.765Z,43.90
2017-04-26T09:16:34.910Z,41.70
2017-04-26T09:17:35.611Z,41.20
2017-04-26T09:18:35.985Z,41.30
2017-04-26T09:19:36.313Z,41.60
2017-04-26T09:20:36.367Z,41.50
2017-04-26T09:21:36.508Z,41.70
2017-04-26T09:22:36.631Z,41.90
2017-04-26T09:23:36.717Z,41.40
2017-04-26T09:24:36.878Z,42.10
2017-04-26T09:25:38.022Z,43.10
2017-04-26T09:26:38.139Z,42.60
2017-04-26T09:27:39.026Z,42.40
2017-04-26T09:28:39.817Z,42.00
2017-04-26T09:29:39.924Z,40.30
2017-04-26T09:30:40.035Z,41.20
2017-04-26T09:31:40.526Z,41.50
2017-04-26T09:32:40.931Z,42.30
2017-04-26T09:33:41.325Z,42.50
2017-04-26T09:34:42.495Z,42.50
2017-04-26T09:35:42.715Z,42.40
2017-04-26T09:36:42.802Z,41.20
2017-04-26T09:37:42.903Z,42.00
2017-04-26T09:38:43.302Z,42.80
2017-04-26T09:39:44.136Z,39.40
2017-04-26T09:40:46.633Z,39.00
2017-04-26T09:41:47.179Z,39.00
2017-04-26T09:42:47.966Z,39.20
2017-04-26T09:43:48.072Z,39.40
2017-04-26T09:44:48.218Z,40.30
2017-04-26T09:45:48.759Z,38.80
2017-04-26T09:46:49.172Z,40.30
2017-04-26T09:47:49.306Z,41.10
2017-04-26T09:48:49.457Z,39.60
2017-04-26T09:49:49.539Z,40.10
2017-04-26T09:50:49.641Z,38.60
2017-04-26T09:51:50.463Z,36.80
2017-04-26T09:52:51.368Z,37.70
2017-04-26T09:53:51.780Z,36.10
2017-04-26T09:54:51.883Z,39.50
2017-04-26T09:55:51.995Z,41.50
2017-04-26T09:57:52.368Z,37.50
2017-04-26T09:58:52.460Z,37.90
2017-04-26T09:59:53.287Z,36.40
2017-04-26T10:00:54.120Z,36.70
2017-04-26T10:01:54.568Z,35.50
2017-04-26T10:02:55.042Z,36.00
2017-04-26T10:03:55.902Z,35.70
2017-04-26T10:04:55.975Z,36.40
2017-04-26T10:05:56.810Z,34.60
2017-04-26T10:06:57.659Z,36.00
2017-04-26T10:07:57.733Z,32.70
2017-04-26T10:08:57.891Z,33.30
2017-04-26T10:09:58.017Z,32.40
2017-04-26T10:10:58.315Z,33.40
2017-04-26T10:11:58.439Z,33.50
2017-04-26T10:12:58.481Z,35.00
2017-04-26T10:13:58.847Z,34.80
2017-04-26T10:14:59.361Z,33.90
2017-04-26T10:15:59.695Z,35.40
2017-04-26T10:16:59.995Z,35.00
2017-04-26T10:18:00.310Z,34.80
2017-04-26T10:19:00.423Z,32.90
2017-04-26T10:20:00.915Z,37.60
2017-04-26T10:21:02.022Z,35.60
2017-04-26T10:22:02.165Z,37.30
2017-04-26T10:23:02.269Z,32.20
2017-04-26T10:24:02.378Z,31.30
2017-04-26T10:25:02.851Z,31.70
2017-04-26T10:26:03.274Z,32.60
2017-04-26T10:27:03.428Z,36.60
2017-04-26T10:28:03.533Z,36.90
2017-04-26T10:29:03.976Z,35.80
2017-04-26T10:30:04.084Z,38.70
2017-04-26T10:31:04.199Z,39.70
2017-04-26T10:32:04.290Z,39.40
2017-04-26T10:33:04.387Z,35.20
2017-04-26T10:34:05.326Z,33.30
2017-04-26T10:35:04.634Z,34.00
2017-04-26T10:36:04.946Z,34.60
2017-04-26T10:37:05.518Z,36.00
2017-04-26T10:38:06.696Z,37.10
2017-04-26T10:39:07.100Z,36.90
2017-04-26T10:40:07.208Z,38.00
2017-04-26T10:41:07.295Z,37.90
2017-04-26T10:42:08.375Z,39.20
2017-04-26T10:43:08.481Z,37.50
2017-04-26T10:44:08.652Z,37.30
2017-04-26T10:45:11.099Z,37.80
2017-04-26T10:46:11.977Z,38.10
2017-04-26T10:47:12.032Z,38.40
2017-04-26T10:48:13.218Z,36.50
2017-04-26T10:49:15.283Z,37.00
2017-04-26T10:50:15.091Z,39.00
2017-04-26T10:51:15.512Z,37.50
2017-04-26T10:52:16.029Z,37.60
2017-04-26T10:53:16.433Z,35.20
2017-04-26T10:54:16.814Z,35.70
2017-04-26T10:55:17.634Z,36.10
2017-04-26T10:56:18.487Z,36.40
2017-04-26T10:57:18.642Z,37.70
2017-04-26T10:58:18.763Z,37.70
2017-04-26T10:59:19.400Z,36.70
2017-04-26T11:00:19.576Z,36.80
2017-04-26T11:01:19.717Z,38.90
2017-04-26T11:02:20.569Z,38.70
2017-04-26T11:03:21.184Z,36.20
2017-04-26T11:04:22.394Z,36.40
2017-04-26T11:05:23.474Z,34.90
2017-04-26T11:06:23.565Z,34.70
2017-04-26T11:07:23.680Z,34.80
2017-04-26T11:08:23.840Z,35.60
2017-04-26T11:09:23.955Z,37.10
2017-04-26T11:10:24.846Z,35.50
2017-04-26T11:11:25.024Z,35.50
2017-04-26T11:12:25.867Z,35.50
2017-04-26T11:13:26.236Z,34.30
2017-04-26T11:14:26.995Z,35.00
2017-04-26T11:15:28.187Z,35.60
2017-04-26T11:16:28.293Z,36.40
2017-04-26T11:17:28.468Z,36.50
2017-04-26T11:18:28.894Z,35.50
2017-04-26T11:19:29.051Z,34.70
2017-04-26T11:20:30.272Z,34.90
2017-04-26T11:21:30.410Z,33.90
2017-04-26T11:22:31.280Z,33.60
2017-04-26T11:23:31.374Z,32.40
2017-04-26T11:24:31.807Z,34.70
2017-04-26T11:25:31.926Z,33.90
2017-04-26T11:26:32.036Z,32.10
2017-04-26T11:27:32.470Z,32.00
2017-04-26T11:28:32.575Z,31.20
2017-04-26T11:29:33.363Z,31.60
2017-04-26T11:30:33.571Z,31.80
2017-04-26T11:31:33.710Z,31.20
2017-04-26T11:32:33.839Z,31.30
2017-04-26T11:33:34.219Z,31.70
2017-04-26T11:34:34.350Z,31.70
2017-04-26T11:35:34.792Z,30.50
2017-04-26T11:36:35.887Z,30.70
2017-04-26T11:37:36.558Z,29.30
2017-04-26T11:39:36.926Z,30.30
2017-04-26T11:40:37.051Z,29.60
2017-04-26T11:41:37.502Z,30.00
2017-04-26T11:42:38.944Z,29.50
2017-04-26T11:43:39.017Z,30.00
2017-04-26T11:44:39.489Z,30.00
2017-04-26T11:45:40.345Z,30.40
2017-04-26T11:46:40.786Z,30.20
2017-04-26T11:47:41.118Z,30.80
2017-04-26T11:48:41.221Z,31.30
2017-04-26T11:49:41.344Z,31.00
2017-04-26T11:50:41.815Z,31.90
2017-04-26T11:51:41.928Z,31.20
2017-04-26T11:52:42.348Z,32.20
2017-04-26T11:53:42.691Z,31.50
2017-04-26T11:54:42.853Z,32.90
2017-04-26T11:55:42.472Z,32.90
2017-04-26T11:56:42.562Z,32.60
2017-04-26T11:57:43.194Z,33.20
2017-04-26T11:58:43.619Z,32.60
2017-04-26T11:59:44.124Z,33.40
2017-04-26T12:00:44.651Z,33.00
2017-04-26T12:01:44.822Z,32.10
2017-04-26T12:02:45.653Z,33.70
2017-04-26T12:03:46.479Z,32.50
2017-04-26T12:04:47.339Z,31.10
2017-04-26T12:05:47.763Z,31.50
2017-04-26T12:06:47.879Z,31.70
2017-04-26T12:07:48.288Z,31.50
2017-04-26T12:08:48.614Z,31.40
2017-04-26T12:09:49.050Z,32.20
2017-04-26T12:10:49.172Z,32.80
2017-04-26T12:12:50.034Z,33.50
2017-04-26T12:13:50.846Z,34.20
2017-04-26T12:14:50.913Z,35.30
2017-04-26T12:15:51.034Z,33.10
2017-04-26T12:16:51.175Z,34.00
2017-04-26T12:17:51.316Z,33.70
2017-04-26T12:18:51.450Z,34.50
2017-04-26T12:19:51.839Z,33.70
2017-04-26T12:20:51.951Z,31.80
2017-04-26T12:21:52.030Z,32.60
2017-04-26T12:22:52.855Z,32.20
2017-04-26T12:23:52.993Z,33.10
2017-04-26T12:24:53.096Z,35.10
2017-04-26T12:25:53.948Z,34.50
2017-04-26T12:26:54.035Z,33.20
2017-04-26T12:27:54.740Z,32.80
2017-04-26T12:28:55.895Z,33.00
2017-04-26T12:29:57.383Z,33.80
2017-04-26T12:30:57.766Z,33.60
2017-04-26T12:31:57.893Z,35.10
2017-04-26T12:32:58.020Z,33.50
2017-04-26T12:33:58.151Z,34.20
2017-04-26T12:34:58.248Z,35.80
2017-04-26T12:35:58.424Z,33.50
2017-04-26T12:36:58.509Z,35.00
2017-04-26T12:37:58.644Z,33.70
2017-04-26T12:38:59.028Z,34.30
2017-04-26T12:39:59.870Z,33.00
2017-04-26T12:41:00.498Z,34.20
2017-04-26T12:42:00.670Z,36.50
2017-04-26T12:43:01.520Z,34.30
2017-04-26T12:44:01.965Z,34.80
2017-04-26T12:45:02.617Z,32.80
2017-04-26T12:46:02.769Z,33.60
2017-04-26T12:47:03.671Z,34.40
2017-04-26T12:48:04.085Z,32.00
2017-04-26T12:49:04.180Z,30.90
2017-04-26T12:50:05.060Z,30.50
2017-04-26T12:51:05.159Z,30.70
2017-04-26T12:52:05.259Z,31.10
2017-04-26T12:53:06.077Z,32.70
2017-04-26T12:54:06.172Z,33.80
2017-04-26T12:55:06.270Z,33.70
2017-04-26T12:56:06.351Z,34.10
2017-04-26T12:57:06.543Z,33.40
2017-04-26T12:58:06.701Z,33.50
2017-04-26T12:59:07.516Z,31.50
2017-04-26T13:00:08.007Z,32.10
2017-04-26T13:01:08.216Z,33.40
2017-04-26T13:02:08.320Z,32.10
2017-04-26T13:03:08.480Z,33.00
2017-04-26T13:04:08.613Z,31.80
2017-04-26T13:05:08.798Z,30.30